EGNV

Durham Tees Valley Airport

Durham, United Kingdom
METAR EGNV 162250Z 28008KT CAVOK M01/M04 Q1021
Observed Flight Rules
Dec-16 @ 22:50 UTC (3 hours ago) Visual Flight Rules
Wind Visibility Clouds
280° at 8 knots 10,000+ meters
  • Clear skies
Temperatures Readings
Current -1°C / 30°F
Dewpoint -4°C / 25°F
Humidity 80%
Altimeter 30.15" Hg
Pressure 1021 hPa
Elevation 37
METAR EGNV 162250Z 28008KT CAVOK M01/M04 Q1021
Observed Flight Rules
Dec-16 @ 22:50 UTC
(3 hours ago)
VFR
Wind Visibility
280° at 8 knots 10,000+ meters
Clouds
  • Clear skies
Temperature Dewpoint
-1°C / 30°F -4°C / 25°F
Humidity Altimeter Pressure
80% 30.15" Hg 1021 hPa